createdAt,value
2017-12-21T00:00:40.046Z,23.90
2017-12-21T00:03:06.886Z,26.40
2017-12-21T00:05:33.760Z,22.95
2017-12-21T00:08:00.609Z,23.12
2017-12-21T00:10:28.266Z,25.90
2017-12-21T00:12:55.911Z,22.50
2017-12-21T00:15:22.734Z,24.73
2017-12-21T00:17:49.623Z,20.45
2017-12-21T00:20:17.265Z,22.15
2017-12-21T00:22:44.077Z,19.75
2017-12-21T00:25:10.907Z,23.85
2017-12-21T00:27:37.967Z,23.20
2017-12-21T00:30:04.832Z,23.62
2017-12-21T00:32:31.655Z,22.20
2017-12-21T00:34:58.535Z,23.10
2017-12-21T00:37:25.371Z,21.42
2017-12-21T00:39:52.218Z,23.10
2017-12-21T00:42:19.870Z,25.95
2017-12-21T00:44:46.690Z,25.75
2017-12-21T00:47:13.525Z,24.20
2017-12-21T00:49:40.398Z,25.50
2017-12-21T00:52:07.227Z,25.95
2017-12-21T00:54:34.114Z,26.23
2017-12-21T00:57:01.723Z,28.02
2017-12-21T00:59:28.575Z,28.42
2017-12-21T01:01:55.482Z,26.25
2017-12-21T01:04:22.301Z,26.20
2017-12-21T01:06:49.886Z,25.17
2017-12-21T01:09:16.752Z,24.85
2017-12-21T01:11:43.597Z,26.45
2017-12-21T01:14:11.240Z,23.50
2017-12-21T01:16:38.122Z,20.75
2017-12-21T01:19:04.963Z,22.80
2017-12-21T01:21:32.586Z,20.15
2017-12-21T01:23:59.427Z,21.50
2017-12-21T01:26:26.997Z,21.58
2017-12-21T01:28:53.834Z,22.45
2017-12-21T01:31:20.698Z,22.50
2017-12-21T01:33:47.581Z,20.12
2017-12-21T01:36:15.182Z,21.58
2017-12-21T01:38:42.022Z,21.37
2017-12-21T01:41:08.918Z,20.58
2017-12-21T01:43:36.569Z,21.15
2017-12-21T01:46:03.411Z,21.48
2017-12-21T01:48:30.285Z,22.50
2017-12-21T01:50:57.913Z,21.73
2017-12-21T01:53:24.799Z,22.17
2017-12-21T01:55:51.649Z,23.33
2017-12-21T01:58:18.519Z,21.87
2017-12-21T02:00:45.443Z,21.42
2017-12-21T02:03:12.322Z,22.98
2017-12-21T02:05:39.186Z,20.00
2017-12-21T02:08:06.795Z,21.35
2017-12-21T02:10:33.654Z,21.30
2017-12-21T02:13:00.502Z,20.65
2017-12-21T02:15:27.367Z,22.95
2017-12-21T02:17:54.227Z,21.10
2017-12-21T02:20:21.126Z,20.83
2017-12-21T02:22:48.018Z,19.30
2017-12-21T02:25:14.871Z,22.23
2017-12-21T02:27:41.790Z,21.83
2017-12-21T02:30:08.689Z,20.60
2017-12-21T02:32:35.625Z,19.40
2017-12-21T02:35:02.545Z,20.20
2017-12-21T02:37:30.166Z,20.12
2017-12-21T02:39:57.057Z,20.12
2017-12-21T02:42:23.951Z,21.45
2017-12-21T02:44:50.859Z,21.30
2017-12-21T02:47:17.723Z,20.08
2017-12-21T02:49:44.630Z,20.27
2017-12-21T02:52:12.210Z,20.92
2017-12-21T02:54:39.082Z,20.48
2017-12-21T02:57:06.006Z,23.15
2017-12-21T02:59:32.862Z,20.23
2017-12-21T03:01:59.729Z,20.80
2017-12-21T03:04:26.611Z,24.20
2017-12-21T03:06:53.498Z,24.45
2017-12-21T03:09:20.451Z,22.98
2017-12-21T03:11:47.322Z,22.35
2017-12-21T03:14:14.935Z,24.75
2017-12-21T03:16:41.831Z,21.25
2017-12-21T03:19:09.403Z,22.17
2017-12-21T03:21:36.315Z,24.08
2017-12-21T03:24:03.210Z,25.25
2017-12-21T03:26:30.058Z,24.67
2017-12-21T03:28:56.918Z,24.60
2017-12-21T03:31:23.789Z,25.23
2017-12-21T03:33:50.671Z,24.85
2017-12-21T03:36:17.591Z,26.58
2017-12-21T03:38:45.209Z,25.27
2017-12-21T03:41:12.035Z,23.60
2017-12-21T03:43:38.926Z,24.83
2017-12-21T03:46:05.769Z,24.45
2017-12-21T03:48:32.616Z,23.40
2017-12-21T03:50:59.506Z,24.08
2017-12-21T03:53:26.357Z,22.77
2017-12-21T03:55:53.261Z,24.40
2017-12-21T03:58:20.066Z,23.95
2017-12-21T04:00:46.974Z,23.58
2017-12-21T04:03:13.822Z,24.23
2017-12-21T04:05:40.698Z,25.48
2017-12-21T04:08:07.578Z,22.27
2017-12-21T04:10:35.182Z,24.27
2017-12-21T04:13:02.057Z,23.00
2017-12-21T04:15:28.990Z,23.52
2017-12-21T04:17:55.937Z,22.65
2017-12-21T04:20:22.812Z,22.42
2017-12-21T04:22:49.723Z,22.83
2017-12-21T04:25:16.538Z,22.37
2017-12-21T04:27:43.410Z,23.12
2017-12-21T04:30:10.270Z,25.15
2017-12-21T04:32:37.090Z,24.27
2017-12-21T04:35:03.954Z,22.55
2017-12-21T04:37:30.791Z,24.42
2017-12-21T04:39:57.637Z,23.50
2017-12-21T04:42:24.526Z,22.52
2017-12-21T04:44:51.403Z,22.67
2017-12-21T04:47:18.296Z,24.92
2017-12-21T04:49:45.206Z,22.92
2017-12-21T04:52:12.074Z,22.90
2017-12-21T04:54:39.662Z,21.83
2017-12-21T04:57:06.621Z,21.10
2017-12-21T04:59:33.490Z,21.12
2017-12-21T05:02:00.381Z,21.02
2017-12-21T05:04:28.001Z,20.65
2017-12-21T05:06:54.850Z,20.10
2017-12-21T05:09:21.713Z,18.67
2017-12-21T05:11:49.347Z,21.90
2017-12-21T05:14:16.235Z,18.35
2017-12-21T05:16:44.460Z,19.30
2017-12-21T05:19:11.671Z,20.73
2017-12-21T05:21:38.825Z,19.62
2017-12-21T05:24:06.409Z,20.08
2017-12-21T05:26:33.263Z,20.15
2017-12-21T05:29:00.093Z,19.83
2017-12-21T05:31:26.968Z,17.50
2017-12-21T05:33:53.797Z,18.17
2017-12-21T05:36:20.703Z,18.90
2017-12-21T05:38:47.577Z,19.40
2017-12-21T05:41:14.450Z,19.08
2017-12-21T05:43:42.050Z,18.37
2017-12-21T05:46:08.921Z,18.30
2017-12-21T05:48:35.797Z,17.42
2017-12-21T05:51:03.914Z,17.83
2017-12-21T05:53:30.770Z,18.10
2017-12-21T05:55:57.696Z,20.55
2017-12-21T05:58:24.630Z,18.45
2017-12-21T06:00:52.249Z,19.95
2017-12-21T06:03:19.856Z,21.75
2017-12-21T06:05:46.827Z,20.60
2017-12-21T06:08:13.658Z,18.95
2017-12-21T06:10:40.543Z,19.05
2017-12-21T06:13:07.434Z,18.80
2017-12-21T06:15:34.305Z,19.98
2017-12-21T06:18:01.175Z,21.23
2017-12-21T06:20:28.029Z,20.95
2017-12-21T06:22:55.638Z,19.60
2017-12-21T06:25:22.473Z,20.30
2017-12-21T06:27:49.309Z,18.70
2017-12-21T06:30:16.176Z,20.12
2017-12-21T06:32:43.035Z,18.95
2017-12-21T06:35:10.658Z,19.25
2017-12-21T06:37:37.490Z,18.67
2017-12-21T06:40:04.323Z,18.30
2017-12-21T06:42:31.207Z,19.23
2017-12-21T06:44:58.071Z,21.65
2017-12-21T06:47:24.938Z,20.35
2017-12-21T06:49:51.767Z,18.83
2017-12-21T06:52:18.675Z,20.17
2017-12-21T06:54:45.527Z,18.60
2017-12-21T06:57:12.453Z,21.05
2017-12-21T06:59:39.372Z,19.55
2017-12-21T07:02:06.251Z,19.00
2017-12-21T07:04:33.141Z,18.70
2017-12-21T07:07:00.059Z,18.25
2017-12-21T07:09:26.925Z,19.73
2017-12-21T07:11:54.509Z,19.33
2017-12-21T07:14:21.371Z,19.00
2017-12-21T07:16:55.195Z,20.35
2017-12-21T07:19:22.043Z,19.75
2017-12-21T07:21:49.050Z,19.35
2017-12-21T07:24:15.918Z,19.95
2017-12-21T07:26:43.555Z,20.75
2017-12-21T07:29:10.443Z,19.30
2017-12-21T07:31:37.265Z,19.92
2017-12-21T07:34:04.114Z,21.02
2017-12-21T07:36:31.023Z,20.62
2017-12-21T07:38:58.763Z,20.55
2017-12-21T07:41:25.594Z,20.73
2017-12-21T07:43:52.472Z,21.05
2017-12-21T07:46:20.063Z,19.55
2017-12-21T07:48:46.895Z,21.52
2017-12-21T07:51:13.798Z,24.37
2017-12-21T07:53:41.422Z,22.45
2017-12-21T07:56:08.270Z,23.20
2017-12-21T07:58:35.821Z,25.77
2017-12-21T08:01:02.726Z,22.90
2017-12-21T08:03:29.578Z,23.02
2017-12-21T08:05:56.431Z,24.33
2017-12-21T08:08:23.261Z,24.45
2017-12-21T08:10:50.131Z,24.40
2017-12-21T08:13:16.969Z,24.08
2017-12-21T08:15:43.870Z,23.65
2017-12-21T08:18:11.466Z,26.52
2017-12-21T08:20:38.314Z,22.92
2017-12-21T08:23:05.129Z,24.77
2017-12-21T08:25:32.009Z,23.80
2017-12-21T08:27:58.906Z,24.12
2017-12-21T08:30:26.517Z,22.30
2017-12-21T08:32:53.386Z,23.05
2017-12-21T08:35:20.238Z,22.27
2017-12-21T08:37:47.126Z,23.92
2017-12-21T08:40:13.964Z,24.20
2017-12-21T08:42:40.835Z,25.27
2017-12-21T08:45:07.706Z,28.70
2017-12-21T08:47:34.575Z,26.40
2017-12-21T08:50:02.178Z,24.15
2017-12-21T08:52:29.035Z,24.73
2017-12-21T08:54:55.915Z,23.10
2017-12-21T08:57:23.494Z,28.55
2017-12-21T08:59:50.354Z,24.42
2017-12-21T09:02:17.206Z,24.10
2017-12-21T09:04:44.078Z,24.63
2017-12-21T09:07:10.950Z,23.23
2017-12-21T09:09:38.538Z,18.27
2017-12-21T09:12:05.407Z,23.85
2017-12-21T09:14:32.259Z,22.75
2017-12-21T09:16:59.177Z,24.30
2017-12-21T09:19:26.046Z,24.92
2017-12-21T09:21:52.913Z,26.08
2017-12-21T09:24:20.529Z,24.27
2017-12-21T09:26:47.397Z,24.17
2017-12-21T09:29:14.287Z,24.42
2017-12-21T09:31:41.170Z,25.90
2017-12-21T09:34:07.998Z,23.30
2017-12-21T09:36:34.911Z,21.83
2017-12-21T09:39:02.558Z,22.13
2017-12-21T09:41:30.158Z,23.25
2017-12-21T09:43:57.050Z,23.23
2017-12-21T09:46:23.909Z,25.20
2017-12-21T09:48:50.763Z,23.05
2017-12-21T09:51:18.382Z,24.23
2017-12-21T09:53:45.229Z,23.77
2017-12-21T09:58:45.783Z,24.37
2017-12-21T10:01:12.703Z,23.55
2017-12-21T10:03:39.514Z,23.38
2017-12-21T10:06:06.345Z,22.62
2017-12-21T10:08:33.210Z,22.35
2017-12-21T10:11:00.094Z,23.98
2017-12-21T10:13:26.959Z,22.60
2017-12-21T10:15:53.833Z,21.23
2017-12-21T10:18:20.739Z,22.10
2017-12-21T10:20:48.330Z,20.20
2017-12-21T10:23:15.199Z,20.05
2017-12-21T10:25:42.069Z,19.50
2017-12-21T10:28:08.942Z,18.90
2017-12-21T10:30:36.583Z,20.62
2017-12-21T10:33:03.502Z,21.95
2017-12-21T10:35:30.386Z,20.55
2017-12-21T10:37:57.987Z,21.05
2017-12-21T10:40:24.879Z,21.20
2017-12-21T10:42:52.483Z,21.90
2017-12-21T10:45:19.323Z,22.30
2017-12-21T10:47:46.233Z,20.50
2017-12-21T10:50:13.387Z,22.90
2017-12-21T10:52:40.374Z,21.77
2017-12-21T10:55:07.215Z,23.95
2017-12-21T10:57:34.067Z,22.23
2017-12-21T11:00:00.946Z,23.48
2017-12-21T11:02:27.802Z,24.77
2017-12-21T11:04:54.707Z,23.25
2017-12-21T11:07:21.555Z,22.35
2017-12-21T11:09:48.442Z,24.20
2017-12-21T11:12:16.055Z,23.85
2017-12-21T11:14:42.911Z,21.45
2017-12-21T11:17:09.770Z,23.85
2017-12-21T11:19:36.634Z,21.27
2017-12-21T11:22:04.235Z,24.67
2017-12-21T11:24:31.146Z,23.40
2017-12-21T11:26:58.738Z,23.30
2017-12-21T11:29:25.586Z,23.58
2017-12-21T11:31:52.430Z,22.17
2017-12-21T11:34:19.331Z,21.12
2017-12-21T11:36:46.225Z,20.25
2017-12-21T11:39:13.079Z,19.08
2017-12-21T11:41:39.946Z,19.90
2017-12-21T11:44:06.784Z,19.17
2017-12-21T11:46:33.666Z,18.92
2017-12-21T11:49:00.502Z,18.50
2017-12-21T11:51:27.365Z,20.48
2017-12-21T11:53:54.198Z,18.45
2017-12-21T11:56:21.082Z,21.62
2017-12-21T11:58:47.954Z,18.83
2017-12-21T12:01:14.819Z,19.40
2017-12-21T12:03:42.406Z,18.52
2017-12-21T12:06:09.318Z,20.70
2017-12-21T12:08:36.154Z,17.55
2017-12-21T12:11:03.104Z,15.68
2017-12-21T12:13:29.962Z,15.52
2017-12-21T12:15:56.806Z,15.30
2017-12-21T12:18:23.795Z,16.62
2017-12-21T12:20:50.626Z,15.48
2017-12-21T12:23:17.530Z,15.53
2017-12-21T12:25:44.386Z,15.63
2017-12-21T12:28:11.242Z,17.70
2017-12-21T12:30:38.078Z,16.67
2017-12-21T12:33:04.937Z,17.27
2017-12-21T12:35:31.813Z,17.63
2017-12-21T12:37:59.407Z,17.77
2017-12-21T12:40:26.267Z,15.37
2017-12-21T12:42:53.157Z,19.00
2017-12-21T12:45:20.058Z,21.70
2017-12-21T12:47:47.043Z,20.33
2017-12-21T12:50:14.015Z,19.87
2017-12-21T12:52:40.871Z,21.77
2017-12-21T12:55:07.722Z,20.42
2017-12-21T12:57:34.549Z,21.90
2017-12-21T13:00:02.150Z,23.80
2017-12-21T13:02:29.042Z,21.92
2017-12-21T13:04:56.655Z,21.23
2017-12-21T13:07:23.499Z,21.58
2017-12-21T13:09:50.338Z,23.38
2017-12-21T13:12:17.230Z,22.40
2017-12-21T13:14:44.094Z,21.10
2017-12-21T13:17:11.694Z,22.45
2017-12-21T13:19:38.562Z,18.80
2017-12-21T13:22:05.387Z,18.58
2017-12-21T13:24:32.231Z,19.80
2017-12-21T13:26:59.115Z,17.67
2017-12-21T13:29:26.697Z,18.35
2017-12-21T13:31:53.566Z,17.92
2017-12-21T13:34:20.424Z,17.85
2017-12-21T13:36:47.287Z,17.12
2017-12-21T13:39:14.904Z,17.52
2017-12-21T13:41:41.735Z,21.52
2017-12-21T13:44:08.568Z,21.37
2017-12-21T13:46:35.434Z,20.10
2017-12-21T13:49:02.307Z,18.23
2017-12-21T13:51:29.146Z,20.10
2017-12-21T13:53:56.003Z,17.98
2017-12-21T13:56:22.883Z,18.17
2017-12-21T13:58:49.969Z,17.80
2017-12-21T14:01:16.898Z,16.60
2017-12-21T14:03:43.766Z,16.23
2017-12-21T14:06:10.644Z,17.85
2017-12-21T14:08:38.242Z,17.60
2017-12-21T14:11:05.070Z,16.90
2017-12-21T14:13:31.931Z,17.45
2017-12-21T14:15:58.806Z,18.23
2017-12-21T14:18:26.426Z,19.02
2017-12-21T14:20:53.353Z,21.45
2017-12-21T14:23:20.206Z,18.20
2017-12-21T14:25:47.085Z,18.92
2017-12-21T14:28:13.927Z,19.67
2017-12-21T14:30:40.746Z,18.05
2017-12-21T14:33:07.582Z,17.85
2017-12-21T14:35:34.458Z,17.12
2017-12-21T14:38:01.362Z,19.50
2017-12-21T14:40:28.222Z,19.65
2017-12-21T14:42:55.027Z,19.67
2017-12-21T14:45:21.891Z,20.35
2017-12-21T14:47:48.725Z,19.30
2017-12-21T14:50:15.561Z,18.62
2017-12-21T14:52:42.398Z,18.23
2017-12-21T14:55:09.271Z,19.33
2017-12-21T14:57:36.074Z,18.95
2017-12-21T15:00:03.709Z,18.95
2017-12-21T15:02:30.587Z,19.65
2017-12-21T15:04:58.178Z,18.48
2017-12-21T15:07:25.006Z,17.30
2017-12-21T15:09:51.887Z,19.95
2017-12-21T15:12:19.475Z,20.73
2017-12-21T15:14:47.115Z,22.87
2017-12-21T15:17:13.955Z,19.00
2017-12-21T15:19:40.826Z,19.40
2017-12-21T15:22:08.426Z,21.20
2017-12-21T15:24:35.285Z,18.40
2017-12-21T15:27:02.142Z,21.58
2017-12-21T15:29:29.006Z,20.02
2017-12-21T15:31:55.889Z,20.23
2017-12-21T15:34:22.766Z,21.23
2017-12-21T15:36:49.646Z,20.65
2017-12-21T15:39:16.529Z,20.00
2017-12-21T15:41:43.432Z,20.12
2017-12-21T15:44:11.220Z,18.95
2017-12-21T15:46:38.155Z,20.40
2017-12-21T15:49:05.123Z,21.27
2017-12-21T15:51:31.959Z,20.75
2017-12-21T15:53:58.802Z,22.00
2017-12-21T15:56:25.638Z,22.40
2017-12-21T15:58:52.522Z,21.45
2017-12-21T16:01:19.477Z,20.45
2017-12-21T16:03:46.595Z,21.23
2017-12-21T16:06:13.554Z,21.87
2017-12-21T16:08:40.456Z,20.55
2017-12-21T16:11:07.395Z,21.52
2017-12-21T16:13:34.310Z,21.25
2017-12-21T16:16:01.179Z,20.33
2017-12-21T16:18:28.038Z,21.45
2017-12-21T16:20:54.963Z,22.00
2017-12-21T16:23:21.801Z,19.12
2017-12-21T16:25:49.402Z,24.67
2017-12-21T16:28:17.099Z,21.37
2017-12-21T16:30:44.831Z,22.95
2017-12-21T16:33:11.662Z,28.87
2017-12-21T16:35:38.538Z,31.00
2017-12-21T16:38:05.407Z,32.72
2017-12-21T16:40:33.110Z,31.70
2017-12-21T16:42:59.995Z,31.00
2017-12-21T16:45:27.863Z,32.65
2017-12-21T16:47:54.698Z,29.87
2017-12-21T16:50:21.627Z,32.50
2017-12-21T16:52:48.462Z,31.08
2017-12-21T16:55:15.376Z,31.90
2017-12-21T16:57:42.259Z,32.33
2017-12-21T17:00:09.182Z,31.92
2017-12-21T17:02:36.051Z,34.17
2017-12-21T17:05:02.954Z,34.95
2017-12-21T17:07:29.842Z,36.08
2017-12-21T17:09:56.739Z,36.00
2017-12-21T17:12:24.354Z,37.05
2017-12-21T17:14:51.983Z,35.88
2017-12-21T17:17:18.861Z,37.30
2017-12-21T17:19:45.766Z,35.22
2017-12-21T17:22:12.697Z,33.42
2017-12-21T17:24:40.302Z,36.60
2017-12-21T17:27:07.170Z,33.00
2017-12-21T17:29:34.762Z,33.70
2017-12-21T17:32:01.694Z,31.60
2017-12-21T17:34:31.480Z,32.28
2017-12-21T17:36:59.051Z,31.70
2017-12-21T17:39:25.931Z,31.83
2017-12-21T17:41:52.845Z,31.35
2017-12-21T17:44:19.759Z,30.17
2017-12-21T17:46:46.608Z,33.28
2017-12-21T17:49:13.559Z,30.67
2017-12-21T17:51:41.270Z,32.30
2017-12-21T17:54:08.982Z,31.17
2017-12-21T17:56:35.914Z,28.73
2017-12-21T17:59:02.770Z,30.35
2017-12-21T18:01:29.816Z,28.35
2017-12-21T18:03:59.730Z,26.67
2017-12-21T18:06:26.590Z,27.45
2017-12-21T18:08:53.474Z,27.30
2017-12-21T18:11:20.375Z,26.20
2017-12-21T18:13:47.213Z,25.40
2017-12-21T18:16:14.121Z,26.83
2017-12-21T18:18:40.950Z,24.75
2017-12-21T18:21:07.878Z,26.87
2017-12-21T18:23:35.590Z,25.20
2017-12-21T18:26:02.479Z,26.37
2017-12-21T18:28:29.316Z,26.85
2017-12-21T18:30:56.263Z,29.65
2017-12-21T18:33:23.843Z,31.95
2017-12-21T18:35:50.710Z,30.50
2017-12-21T18:38:17.610Z,27.98
2017-12-21T18:40:45.261Z,28.45
2017-12-21T18:43:12.139Z,31.80
2017-12-21T18:45:39.008Z,31.35
2017-12-21T18:48:05.883Z,29.27
2017-12-21T18:50:32.894Z,29.45
2017-12-21T18:52:59.766Z,28.17
2017-12-21T18:55:26.662Z,29.83
2017-12-21T18:57:53.557Z,25.70
2017-12-21T19:00:21.347Z,29.98
2017-12-21T19:02:48.977Z,27.87
2017-12-21T19:05:15.910Z,30.05
2017-12-21T19:07:42.827Z,28.67
2017-12-21T19:10:09.767Z,31.35
2017-12-21T19:12:36.647Z,30.85
2017-12-21T19:15:03.543Z,32.03
2017-12-21T19:17:30.378Z,34.97
2017-12-21T19:19:57.238Z,34.47
2017-12-21T19:22:24.115Z,35.55
2017-12-21T19:24:51.008Z,35.30
2017-12-21T19:27:17.878Z,34.10
2017-12-21T19:29:44.786Z,34.25
2017-12-21T19:32:12.511Z,33.00
2017-12-21T19:34:39.359Z,32.40
2017-12-21T19:37:06.234Z,32.25
2017-12-21T19:39:33.831Z,29.65
2017-12-21T19:42:01.570Z,29.50
2017-12-21T19:44:29.147Z,31.02
2017-12-21T19:46:56.046Z,29.58
2017-12-21T19:49:30.670Z,27.25
2017-12-21T19:51:57.626Z,26.73
2017-12-21T19:54:25.258Z,29.58
2017-12-21T19:56:52.863Z,26.58
2017-12-21T19:59:19.790Z,30.00
2017-12-21T20:01:47.442Z,30.90
2017-12-21T20:04:15.067Z,27.48
2017-12-21T20:06:41.942Z,27.48
2017-12-21T20:09:08.809Z,30.50
2017-12-21T20:11:36.482Z,28.80
2017-12-21T20:14:03.362Z,26.85
2017-12-21T20:16:30.244Z,28.55
2017-12-21T20:18:57.130Z,25.85
2017-12-21T20:21:24.077Z,26.60
2017-12-21T20:23:51.683Z,24.67
2017-12-21T20:26:18.562Z,27.98
2017-12-21T20:28:45.418Z,25.80
2017-12-21T20:31:12.354Z,28.27
2017-12-21T20:33:39.265Z,26.70
2017-12-21T20:36:06.926Z,28.87
2017-12-21T20:38:34.470Z,26.77
2017-12-21T20:41:01.453Z,27.98
2017-12-21T20:43:28.391Z,27.10
2017-12-21T20:45:55.996Z,25.90
2017-12-21T20:48:22.878Z,28.38
2017-12-21T20:50:50.594Z,26.75
2017-12-21T20:53:17.426Z,27.42
2017-12-21T20:55:44.270Z,26.42
2017-12-21T20:58:11.131Z,24.33
2017-12-21T21:00:38.125Z,24.37
2017-12-21T21:03:05.728Z,24.80
2017-12-21T21:05:32.610Z,26.70
2017-12-21T21:07:59.530Z,23.40
2017-12-21T21:10:27.287Z,22.17
2017-12-21T21:12:54.166Z,28.67
2017-12-21T21:15:21.026Z,30.05
2017-12-21T21:17:48.664Z,31.23
2017-12-21T21:20:15.682Z,28.92
2017-12-21T21:22:42.554Z,32.90
2017-12-21T21:25:09.443Z,29.80
2017-12-21T21:27:36.354Z,30.55
2017-12-21T21:30:04.090Z,30.67
2017-12-21T21:32:31.002Z,30.00
2017-12-21T21:34:57.889Z,32.13
2017-12-21T21:37:24.780Z,33.55
2017-12-21T21:39:51.702Z,28.52
2017-12-21T21:42:19.321Z,29.85
2017-12-21T21:44:46.194Z,29.40
2017-12-21T21:47:13.043Z,26.25
2017-12-21T21:49:39.898Z,27.15
2017-12-21T21:52:07.574Z,29.30
2017-12-21T21:54:34.591Z,26.70
2017-12-21T21:57:01.490Z,25.70
2017-12-21T21:59:28.334Z,27.23
2017-12-21T22:01:55.226Z,26.52
2017-12-21T22:04:22.091Z,28.35
2017-12-21T22:06:49.754Z,26.35
2017-12-21T22:09:17.342Z,31.15
2017-12-21T22:11:44.302Z,31.95
2017-12-21T22:14:11.164Z,29.27
2017-12-21T22:16:38.025Z,25.90
2017-12-21T22:19:05.642Z,22.75
2017-12-21T22:21:32.547Z,21.65
2017-12-21T22:24:00.220Z,21.98
2017-12-21T22:26:27.107Z,20.73
2017-12-21T22:28:53.975Z,22.02
2017-12-21T22:31:20.946Z,25.83
2017-12-21T22:33:48.583Z,25.90
2017-12-21T22:36:15.406Z,28.95
2017-12-21T22:38:42.265Z,25.77
2017-12-21T22:41:09.190Z,26.25
2017-12-21T22:43:36.050Z,23.92
2017-12-21T22:46:02.922Z,24.45
2017-12-21T22:48:30.538Z,24.30
2017-12-21T22:50:57.474Z,25.25
2017-12-21T22:53:24.353Z,23.12
2017-12-21T22:55:51.993Z,24.98
2017-12-21T22:58:18.878Z,24.33
2017-12-21T23:00:45.814Z,26.30
2017-12-21T23:03:12.667Z,24.02
2017-12-21T23:05:39.549Z,22.40
2017-12-21T23:08:06.407Z,22.17
2017-12-21T23:10:33.309Z,22.98
2017-12-21T23:13:00.207Z,24.90
2017-12-21T23:15:27.079Z,23.38
2017-12-21T23:17:54.690Z,20.50
2017-12-21T23:20:22.401Z,22.90
2017-12-21T23:22:49.990Z,23.00
2017-12-21T23:25:17.566Z,25.60
2017-12-21T23:27:44.466Z,24.87
2017-12-21T23:30:12.139Z,25.25
2017-12-21T23:32:39.718Z,25.58
2017-12-21T23:35:06.612Z,23.95
2017-12-21T23:37:33.421Z,24.42
2017-12-21T23:40:00.326Z,23.27
2017-12-21T23:42:27.217Z,26.85
2017-12-21T23:44:54.081Z,22.87
2017-12-21T23:47:20.900Z,26.10
2017-12-21T23:49:47.757Z,24.35
2017-12-21T23:52:14.771Z,25.27
2017-12-21T23:54:41.618Z,24.40
2017-12-21T23:57:08.510Z,23.52
2017-12-21T23:59:35.329Z,21.80
